sensor_id;sensor_type;location;lat;lon;timestamp;P1;durP1;ratioP1;P2;durP2;ratioP2
8538;SDS011;4307;53.868;11.680;2022-11-20T00:00:02;4.70;;;3.83;;
8538;SDS011;4307;53.868;11.680;2022-11-20T00:02:29;5.37;;;3.77;;
8538;SDS011;4307;53.868;11.680;2022-11-20T00:04:56;5.57;;;4.10;;
8538;SDS011;4307;53.868;11.680;2022-11-20T00:07:24;6.00;;;4.13;;
8538;SDS011;4307;53.868;11.680;2022-11-20T00:09:51;5.97;;;4.40;;
8538;SDS011;4307;53.868;11.680;2022-11-20T00:12:17;5.53;;;4.00;;
8538;SDS011;4307;53.868;11.680;2022-11-20T00:14:44;5.60;;;4.50;;
8538;SDS011;4307;53.868;11.680;2022-11-20T00:17:11;5.23;;;3.13;;
8538;SDS011;4307;53.868;11.680;2022-11-20T00:19:37;6.77;;;4.57;;
8538;SDS011;4307;53.868;11.680;2022-11-20T00:22:04;5.70;;;4.50;;
8538;SDS011;4307;53.868;11.680;2022-11-20T00:24:32;7.53;;;4.90;;
8538;SDS011;4307;53.868;11.680;2022-11-20T00:26:58;6.57;;;5.07;;
8538;SDS011;4307;53.868;11.680;2022-11-20T00:29:25;7.77;;;5.60;;
8538;SDS011;4307;53.868;11.680;2022-11-20T00:31:52;6.53;;;4.97;;
8538;SDS011;4307;53.868;11.680;2022-11-20T00:34:18;6.80;;;5.20;;
8538;SDS011;4307;53.868;11.680;2022-11-20T00:36:45;8.70;;;5.37;;
8538;SDS011;4307;53.868;11.680;2022-11-20T00:39:11;8.47;;;6.00;;
8538;SDS011;4307;53.868;11.680;2022-11-20T00:41:39;6.63;;;5.13;;
8538;SDS011;4307;53.868;11.680;2022-11-20T00:44:06;8.10;;;5.40;;
8538;SDS011;4307;53.868;11.680;2022-11-20T00:46:33;7.60;;;5.57;;
8538;SDS011;4307;53.868;11.680;2022-11-20T00:48:59;7.63;;;5.70;;
8538;SDS011;4307;53.868;11.680;2022-11-20T00:51:26;7.67;;;5.10;;
8538;SDS011;4307;53.868;11.680;2022-11-20T00:53:54;6.73;;;5.17;;
8538;SDS011;4307;53.868;11.680;2022-11-20T00:56:21;6.23;;;4.50;;
8538;SDS011;4307;53.868;11.680;2022-11-20T00:58:49;6.97;;;4.93;;
8538;SDS011;4307;53.868;11.680;2022-11-20T01:01:16;4.70;;;4.10;;
8538;SDS011;4307;53.868;11.680;2022-11-20T01:03:45;5.03;;;4.10;;
8538;SDS011;4307;53.868;11.680;2022-11-20T01:06:14;5.60;;;4.10;;
8538;SDS011;4307;53.868;11.680;2022-11-20T01:08:43;5.23;;;4.13;;
8538;SDS011;4307;53.868;11.680;2022-11-20T01:11:10;5.50;;;3.87;;
8538;SDS011;4307;53.868;11.680;2022-11-20T01:13:38;3.67;;;2.97;;
8538;SDS011;4307;53.868;11.680;2022-11-20T01:16:08;3.90;;;3.33;;
8538;SDS011;4307;53.868;11.680;2022-11-20T01:18:37;2.33;;;2.10;;
8538;SDS011;4307;53.868;11.680;2022-11-20T01:21:05;2.93;;;2.20;;
8538;SDS011;4307;53.868;11.680;2022-11-20T01:23:33;1.37;;;1.27;;
8538;SDS011;4307;53.868;11.680;2022-11-20T01:26:01;1.33;;;1.10;;
8538;SDS011;4307;53.868;11.680;2022-11-20T01:28:29;1.10;;;1.00;;
8538;SDS011;4307;53.868;11.680;2022-11-20T01:30:56;1.10;;;1.10;;
8538;SDS011;4307;53.868;11.680;2022-11-20T01:33:24;0.83;;;0.83;;
8538;SDS011;4307;53.868;11.680;2022-11-20T01:35:51;0.50;;;0.50;;
8538;SDS011;4307;53.868;11.680;2022-11-20T01:38:18;1.00;;;0.90;;
8538;SDS011;4307;53.868;11.680;2022-11-20T01:40:53;0.73;;;0.73;;
8538;SDS011;4307;53.868;11.680;2022-11-20T01:43:20;0.70;;;0.70;;
8538;SDS011;4307;53.868;11.680;2022-11-20T01:45:51;0.80;;;0.80;;
8538;SDS011;4307;53.868;11.680;2022-11-20T01:48:25;0.80;;;0.80;;
8538;SDS011;4307;53.868;11.680;2022-11-20T01:50:54;0.77;;;0.77;;
8538;SDS011;4307;53.868;11.680;2022-11-20T01:53:22;0.50;;;0.50;;
8538;SDS011;4307;53.868;11.680;2022-11-20T01:55:53;0.77;;;0.77;;
8538;SDS011;4307;53.868;11.680;2022-11-20T01:58:23;0.60;;;0.57;;
8538;SDS011;4307;53.868;11.680;2022-11-20T02:00:53;0.50;;;0.50;;
8538;SDS011;4307;53.868;11.680;2022-11-20T02:03:20;0.50;;;0.50;;
8538;SDS011;4307;53.868;11.680;2022-11-20T02:05:49;0.50;;;0.50;;
8538;SDS011;4307;53.868;11.680;2022-11-20T02:08:20;0.50;;;0.50;;
8538;SDS011;4307;53.868;11.680;2022-11-20T02:10:47;0.67;;;0.67;;
8538;SDS011;4307;53.868;11.680;2022-11-20T02:13:14;0.30;;;0.30;;
8538;SDS011;4307;53.868;11.680;2022-11-20T02:15:59;0.30;;;0.30;;
8538;SDS011;4307;53.868;11.680;2022-11-20T02:18:26;0.33;;;0.33;;
8538;SDS011;4307;53.868;11.680;2022-11-20T02:20:56;0.50;;;0.50;;
8538;SDS011;4307;53.868;11.680;2022-11-20T02:23:28;0.53;;;0.53;;
8538;SDS011;4307;53.868;11.680;2022-11-20T02:25:59;0.50;;;0.50;;
8538;SDS011;4307;53.868;11.680;2022-11-20T02:28:30;0.87;;;0.87;;
8538;SDS011;4307;53.868;11.680;2022-11-20T02:30:57;0.80;;;0.80;;
8538;SDS011;4307;53.868;11.680;2022-11-20T02:33:24;0.80;;;0.80;;
8538;SDS011;4307;53.868;11.680;2022-11-20T02:35:50;0.67;;;0.67;;
8538;SDS011;4307;53.868;11.680;2022-11-20T02:38:17;1.00;;;1.00;;
8538;SDS011;4307;53.868;11.680;2022-11-20T02:40:44;0.80;;;0.80;;
8538;SDS011;4307;53.868;11.680;2022-11-20T02:43:12;0.97;;;0.97;;
8538;SDS011;4307;53.868;11.680;2022-11-20T02:45:38;1.50;;;1.40;;
8538;SDS011;4307;53.868;11.680;2022-11-20T02:48:05;1.30;;;1.20;;
8538;SDS011;4307;53.868;11.680;2022-11-20T02:50:33;1.20;;;1.10;;
8538;SDS011;4307;53.868;11.680;2022-11-20T02:53:02;1.40;;;1.17;;
8538;SDS011;4307;53.868;11.680;2022-11-20T02:55:29;1.50;;;1.40;;
8538;SDS011;4307;53.868;11.680;2022-11-20T02:57:56;1.67;;;1.57;;
8538;SDS011;4307;53.868;11.680;2022-11-20T03:00:24;1.53;;;1.43;;
8538;SDS011;4307;53.868;11.680;2022-11-20T03:02:50;1.50;;;1.40;;
8538;SDS011;4307;53.868;11.680;2022-11-20T03:05:17;1.57;;;1.47;;
8538;SDS011;4307;53.868;11.680;2022-11-20T03:07:44;1.37;;;1.27;;
8538;SDS011;4307;53.868;11.680;2022-11-20T03:10:10;1.30;;;1.27;;
8538;SDS011;4307;53.868;11.680;2022-11-20T03:12:37;1.47;;;1.37;;
8538;SDS011;4307;53.868;11.680;2022-11-20T03:15:04;1.37;;;1.27;;
8538;SDS011;4307;53.868;11.680;2022-11-20T03:17:33;1.27;;;1.17;;
8538;SDS011;4307;53.868;11.680;2022-11-20T03:19:59;1.20;;;1.20;;
8538;SDS011;4307;53.868;11.680;2022-11-20T03:22:28;1.47;;;1.37;;
8538;SDS011;4307;53.868;11.680;2022-11-20T03:24:55;1.63;;;1.53;;
8538;SDS011;4307;53.868;11.680;2022-11-20T03:27:21;1.80;;;1.70;;
8538;SDS011;4307;53.868;11.680;2022-11-20T03:29:48;2.10;;;1.90;;
8538;SDS011;4307;53.868;11.680;2022-11-20T03:32:15;2.33;;;2.13;;
8538;SDS011;4307;53.868;11.680;2022-11-20T03:34:43;3.33;;;2.63;;
8538;SDS011;4307;53.868;11.680;2022-11-20T03:37:09;3.20;;;2.73;;
8538;SDS011;4307;53.868;11.680;2022-11-20T03:39:36;3.13;;;2.70;;
8538;SDS011;4307;53.868;11.680;2022-11-20T03:42:03;2.70;;;2.50;;
8538;SDS011;4307;53.868;11.680;2022-11-20T03:44:49;3.57;;;2.97;;
8538;SDS011;4307;53.868;11.680;2022-11-20T03:47:16;2.50;;;2.30;;
8538;SDS011;4307;53.868;11.680;2022-11-20T03:49:44;2.93;;;2.67;;
8538;SDS011;4307;53.868;11.680;2022-11-20T03:52:10;3.47;;;3.17;;
8538;SDS011;4307;53.868;11.680;2022-11-20T03:54:37;3.77;;;3.10;;
8538;SDS011;4307;53.868;11.680;2022-11-20T03:57:04;4.13;;;3.50;;
8538;SDS011;4307;53.868;11.680;2022-11-20T03:59:30;3.53;;;3.20;;
8538;SDS011;4307;53.868;11.680;2022-11-20T04:01:57;3.27;;;3.00;;
8538;SDS011;4307;53.868;11.680;2022-11-20T04:04:24;3.37;;;3.00;;
8538;SDS011;4307;53.868;11.680;2022-11-20T04:06:52;4.50;;;3.93;;
8538;SDS011;4307;53.868;11.680;2022-11-20T04:09:18;4.83;;;4.07;;
8538;SDS011;4307;53.868;11.680;2022-11-20T04:11:45;3.80;;;3.30;;
8538;SDS011;4307;53.868;11.680;2022-11-20T04:14:12;5.63;;;3.80;;
8538;SDS011;4307;53.868;11.680;2022-11-20T04:16:40;3.77;;;3.20;;
8538;SDS011;4307;53.868;11.680;2022-11-20T04:19:10;3.87;;;3.20;;
8538;SDS011;4307;53.868;11.680;2022-11-20T04:21:38;4.00;;;3.60;;
8538;SDS011;4307;53.868;11.680;2022-11-20T04:24:07;4.00;;;3.30;;
8538;SDS011;4307;53.868;11.680;2022-11-20T04:26:35;3.57;;;3.27;;
8538;SDS011;4307;53.868;11.680;2022-11-20T04:29:02;3.70;;;3.20;;
8538;SDS011;4307;53.868;11.680;2022-11-20T04:31:31;4.87;;;3.00;;
8538;SDS011;4307;53.868;11.680;2022-11-20T04:33:59;3.67;;;3.00;;
8538;SDS011;4307;53.868;11.680;2022-11-20T04:36:28;3.77;;;3.17;;
8538;SDS011;4307;53.868;11.680;2022-11-20T04:38:56;4.47;;;3.57;;
8538;SDS011;4307;53.868;11.680;2022-11-20T04:41:25;3.93;;;3.50;;
8538;SDS011;4307;53.868;11.680;2022-11-20T04:43:54;3.93;;;3.50;;
8538;SDS011;4307;53.868;11.680;2022-11-20T04:46:24;4.40;;;4.00;;
8538;SDS011;4307;53.868;11.680;2022-11-20T04:48:52;4.80;;;4.00;;
8538;SDS011;4307;53.868;11.680;2022-11-20T04:51:19;5.83;;;4.23;;
8538;SDS011;4307;53.868;11.680;2022-11-20T04:53:45;5.40;;;4.63;;
8538;SDS011;4307;53.868;11.680;2022-11-20T04:56:12;4.60;;;4.07;;
8538;SDS011;4307;53.868;11.680;2022-11-20T04:58:41;6.33;;;4.03;;
8538;SDS011;4307;53.868;11.680;2022-11-20T05:01:09;6.20;;;4.70;;
8538;SDS011;4307;53.868;11.680;2022-11-20T05:03:36;6.37;;;5.33;;
8538;SDS011;4307;53.868;11.680;2022-11-20T05:06:04;10.57;;;7.20;;
8538;SDS011;4307;53.868;11.680;2022-11-20T05:08:32;7.37;;;6.27;;
8538;SDS011;4307;53.868;11.680;2022-11-20T05:10:59;11.20;;;7.93;;
8538;SDS011;4307;53.868;11.680;2022-11-20T05:13:27;13.60;;;10.97;;
8538;SDS011;4307;53.868;11.680;2022-11-20T05:15:55;9.20;;;8.23;;
8538;SDS011;4307;53.868;11.680;2022-11-20T05:18:26;6.93;;;6.17;;
8538;SDS011;4307;53.868;11.680;2022-11-20T05:20:54;7.17;;;6.47;;
8538;SDS011;4307;53.868;11.680;2022-11-20T05:23:22;7.70;;;6.90;;
8538;SDS011;4307;53.868;11.680;2022-11-20T05:25:51;6.63;;;4.50;;
8538;SDS011;4307;53.868;11.680;2022-11-20T05:28:18;4.10;;;3.70;;
8538;SDS011;4307;53.868;11.680;2022-11-20T05:30:45;4.53;;;3.90;;
8538;SDS011;4307;53.868;11.680;2022-11-20T05:33:13;5.70;;;4.53;;
8538;SDS011;4307;53.868;11.680;2022-11-20T05:35:40;6.37;;;5.07;;
8538;SDS011;4307;53.868;11.680;2022-11-20T05:38:06;5.17;;;4.67;;
8538;SDS011;4307;53.868;11.680;2022-11-20T05:40:33;7.40;;;4.63;;
8538;SDS011;4307;53.868;11.680;2022-11-20T05:43:00;5.73;;;4.80;;
8538;SDS011;4307;53.868;11.680;2022-11-20T05:45:27;5.67;;;4.53;;
8538;SDS011;4307;53.868;11.680;2022-11-20T05:47:57;6.47;;;4.97;;
8538;SDS011;4307;53.868;11.680;2022-11-20T05:50:25;6.13;;;4.83;;
8538;SDS011;4307;53.868;11.680;2022-11-20T05:52:52;5.20;;;4.43;;
8538;SDS011;4307;53.868;11.680;2022-11-20T05:55:18;7.07;;;5.10;;
8538;SDS011;4307;53.868;11.680;2022-11-20T05:57:45;7.53;;;5.53;;
8538;SDS011;4307;53.868;11.680;2022-11-20T06:00:12;6.67;;;5.33;;
8538;SDS011;4307;53.868;11.680;2022-11-20T06:02:40;7.20;;;5.37;;
8538;SDS011;4307;53.868;11.680;2022-11-20T06:05:07;6.57;;;5.60;;
8538;SDS011;4307;53.868;11.680;2022-11-20T06:07:36;6.73;;;5.30;;
8538;SDS011;4307;53.868;11.680;2022-11-20T06:10:03;5.40;;;4.33;;
8538;SDS011;4307;53.868;11.680;2022-11-20T06:12:31;5.60;;;4.47;;
8538;SDS011;4307;53.868;11.680;2022-11-20T06:14:57;4.77;;;4.27;;
8538;SDS011;4307;53.868;11.680;2022-11-20T06:17:24;5.97;;;4.30;;
8538;SDS011;4307;53.868;11.680;2022-11-20T06:19:51;5.73;;;4.67;;
8538;SDS011;4307;53.868;11.680;2022-11-20T06:22:17;6.73;;;4.47;;
8538;SDS011;4307;53.868;11.680;2022-11-20T06:24:45;6.33;;;4.43;;
8538;SDS011;4307;53.868;11.680;2022-11-20T06:27:12;4.90;;;4.33;;
8538;SDS011;4307;53.868;11.680;2022-11-20T06:29:39;6.00;;;4.30;;
8538;SDS011;4307;53.868;11.680;2022-11-20T06:32:05;6.67;;;4.87;;
8538;SDS011;4307;53.868;11.680;2022-11-20T06:34:32;6.10;;;4.47;;
8538;SDS011;4307;53.868;11.680;2022-11-20T06:36:59;6.53;;;4.60;;
8538;SDS011;4307;53.868;11.680;2022-11-20T06:39:25;5.10;;;4.27;;
8538;SDS011;4307;53.868;11.680;2022-11-20T06:41:53;5.43;;;4.77;;
8538;SDS011;4307;53.868;11.680;2022-11-20T06:44:20;5.53;;;4.37;;
8538;SDS011;4307;53.868;11.680;2022-11-20T06:46:46;5.40;;;3.83;;
8538;SDS011;4307;53.868;11.680;2022-11-20T06:49:13;5.97;;;4.30;;
8538;SDS011;4307;53.868;11.680;2022-11-20T06:51:40;5.13;;;4.00;;
8538;SDS011;4307;53.868;11.680;2022-11-20T06:54:06;4.83;;;3.90;;
8538;SDS011;4307;53.868;11.680;2022-11-20T06:56:33;4.63;;;4.00;;
8538;SDS011;4307;53.868;11.680;2022-11-20T06:59:04;5.63;;;3.97;;
8538;SDS011;4307;53.868;11.680;2022-11-20T07:01:31;4.80;;;4.00;;
8538;SDS011;4307;53.868;11.680;2022-11-20T07:03:58;5.93;;;4.23;;
8538;SDS011;4307;53.868;11.680;2022-11-20T07:06:25;4.77;;;3.73;;
8538;SDS011;4307;53.868;11.680;2022-11-20T07:08:51;5.23;;;3.90;;
8538;SDS011;4307;53.868;11.680;2022-11-20T07:11:18;5.33;;;4.77;;
8538;SDS011;4307;53.868;11.680;2022-11-20T07:13:45;5.77;;;4.30;;
8538;SDS011;4307;53.868;11.680;2022-11-20T07:16:13;4.97;;;4.03;;
8538;SDS011;4307;53.868;11.680;2022-11-20T07:18:40;6.50;;;4.20;;
8538;SDS011;4307;53.868;11.680;2022-11-20T07:21:08;5.57;;;4.03;;
8538;SDS011;4307;53.868;11.680;2022-11-20T07:23:36;8.30;;;4.23;;
8538;SDS011;4307;53.868;11.680;2022-11-20T07:26:03;6.50;;;4.40;;
8538;SDS011;4307;53.868;11.680;2022-11-20T07:28:30;5.77;;;4.43;;
8538;SDS011;4307;53.868;11.680;2022-11-20T07:30:57;7.57;;;4.53;;
8538;SDS011;4307;53.868;11.680;2022-11-20T07:33:26;5.80;;;4.50;;
8538;SDS011;4307;53.868;11.680;2022-11-20T07:35:52;8.47;;;5.13;;
8538;SDS011;4307;53.868;11.680;2022-11-20T07:38:19;6.67;;;5.53;;
8538;SDS011;4307;53.868;11.680;2022-11-20T07:40:46;8.10;;;5.60;;
8538;SDS011;4307;53.868;11.680;2022-11-20T07:43:12;7.00;;;5.13;;
8538;SDS011;4307;53.868;11.680;2022-11-20T07:45:39;7.23;;;5.17;;
8538;SDS011;4307;53.868;11.680;2022-11-20T07:48:06;7.47;;;5.40;;
8538;SDS011;4307;53.868;11.680;2022-11-20T07:50:34;9.60;;;5.20;;
8538;SDS011;4307;53.868;11.680;2022-11-20T07:53:01;11.33;;;6.03;;
8538;SDS011;4307;53.868;11.680;2022-11-20T07:55:28;6.70;;;5.20;;
8538;SDS011;4307;53.868;11.680;2022-11-20T07:57:55;7.60;;;5.27;;
8538;SDS011;4307;53.868;11.680;2022-11-20T08:00:22;8.57;;;5.43;;
8538;SDS011;4307;53.868;11.680;2022-11-20T08:02:49;6.37;;;4.20;;
8538;SDS011;4307;53.868;11.680;2022-11-20T08:05:16;4.87;;;4.10;;
8538;SDS011;4307;53.868;11.680;2022-11-20T08:07:44;5.80;;;4.70;;
8538;SDS011;4307;53.868;11.680;2022-11-20T08:10:11;5.00;;;3.60;;
8538;SDS011;4307;53.868;11.680;2022-11-20T08:12:43;4.53;;;4.07;;
8538;SDS011;4307;53.868;11.680;2022-11-20T08:15:28;3.83;;;3.27;;
8538;SDS011;4307;53.868;11.680;2022-11-20T08:17:58;5.53;;;4.10;;
8538;SDS011;4307;53.868;11.680;2022-11-20T08:20:26;6.70;;;4.57;;
8538;SDS011;4307;53.868;11.680;2022-11-20T08:22:58;5.40;;;4.00;;
8538;SDS011;4307;53.868;11.680;2022-11-20T08:25:26;4.70;;;4.03;;
8538;SDS011;4307;53.868;11.680;2022-11-20T08:27:53;7.20;;;3.93;;
8538;SDS011;4307;53.868;11.680;2022-11-20T08:30:19;5.03;;;4.40;;
8538;SDS011;4307;53.868;11.680;2022-11-20T08:32:46;5.23;;;4.50;;
8538;SDS011;4307;53.868;11.680;2022-11-20T08:35:12;6.10;;;4.90;;
8538;SDS011;4307;53.868;11.680;2022-11-20T08:37:39;5.47;;;4.67;;
8538;SDS011;4307;53.868;11.680;2022-11-20T08:40:09;16.30;;;12.37;;
8538;SDS011;4307;53.868;11.680;2022-11-20T08:42:37;15.67;;;10.63;;
8538;SDS011;4307;53.868;11.680;2022-11-20T08:45:11;36.37;;;20.53;;
8538;SDS011;4307;53.868;11.680;2022-11-20T08:47:38;8.23;;;5.97;;
8538;SDS011;4307;53.868;11.680;2022-11-20T08:50:05;16.30;;;10.50;;
8538;SDS011;4307;53.868;11.680;2022-11-20T08:52:32;7.33;;;5.37;;
8538;SDS011;4307;53.868;11.680;2022-11-20T08:54:59;11.00;;;8.63;;
8538;SDS011;4307;53.868;11.680;2022-11-20T08:57:27;6.37;;;5.17;;
8538;SDS011;4307;53.868;11.680;2022-11-20T08:59:54;9.47;;;7.07;;
8538;SDS011;4307;53.868;11.680;2022-11-20T09:02:20;9.33;;;6.90;;
8538;SDS011;4307;53.868;11.680;2022-11-20T09:04:47;13.20;;;9.23;;
8538;SDS011;4307;53.868;11.680;2022-11-20T09:07:13;11.20;;;7.60;;
8538;SDS011;4307;53.868;11.680;2022-11-20T09:09:40;9.10;;;6.53;;
8538;SDS011;4307;53.868;11.680;2022-11-20T09:12:07;7.57;;;6.13;;
8538;SDS011;4307;53.868;11.680;2022-11-20T09:14:35;8.23;;;6.50;;
8538;SDS011;4307;53.868;11.680;2022-11-20T09:17:01;7.80;;;5.83;;
8538;SDS011;4307;53.868;11.680;2022-11-20T09:19:29;33.67;;;23.10;;
8538;SDS011;4307;53.868;11.680;2022-11-20T09:21:56;55.37;;;39.40;;
8538;SDS011;4307;53.868;11.680;2022-11-20T09:24:23;37.23;;;27.90;;
8538;SDS011;4307;53.868;11.680;2022-11-20T09:26:50;19.13;;;15.40;;
8538;SDS011;4307;53.868;11.680;2022-11-20T09:29:16;7.43;;;5.60;;
8538;SDS011;4307;53.868;11.680;2022-11-20T09:31:44;6.97;;;6.03;;
8538;SDS011;4307;53.868;11.680;2022-11-20T09:34:11;9.83;;;7.40;;
8538;SDS011;4307;53.868;11.680;2022-11-20T09:36:38;9.53;;;7.00;;
8538;SDS011;4307;53.868;11.680;2022-11-20T09:39:05;5.87;;;5.00;;
8538;SDS011;4307;53.868;11.680;2022-11-20T09:41:35;6.50;;;5.30;;
8538;SDS011;4307;53.868;11.680;2022-11-20T09:44:16;6.07;;;4.57;;
8538;SDS011;4307;53.868;11.680;2022-11-20T09:46:55;4.00;;;3.67;;
8538;SDS011;4307;53.868;11.680;2022-11-20T09:49:28;4.77;;;4.30;;
8538;SDS011;4307;53.868;11.680;2022-11-20T09:52:06;6.50;;;5.00;;
8538;SDS011;4307;53.868;11.680;2022-11-20T09:54:40;5.27;;;4.27;;
8538;SDS011;4307;53.868;11.680;2022-11-20T09:57:09;5.07;;;3.97;;
8538;SDS011;4307;53.868;11.680;2022-11-20T09:59:40;5.50;;;4.27;;
8538;SDS011;4307;53.868;11.680;2022-11-20T10:02:15;6.57;;;4.87;;
8538;SDS011;4307;53.868;11.680;2022-11-20T10:04:47;7.73;;;5.73;;
8538;SDS011;4307;53.868;11.680;2022-11-20T10:07:19;2.27;;;2.03;;
8538;SDS011;4307;53.868;11.680;2022-11-20T10:09:50;6.67;;;5.33;;
8538;SDS011;4307;53.868;11.680;2022-11-20T10:12:19;5.57;;;3.47;;
8538;SDS011;4307;53.868;11.680;2022-11-20T10:14:56;5.30;;;3.60;;
8538;SDS011;4307;53.868;11.680;2022-11-20T10:17:34;4.13;;;2.87;;
8538;SDS011;4307;53.868;11.680;2022-11-20T10:20:19;3.03;;;2.53;;
8538;SDS011;4307;53.868;11.680;2022-11-20T10:22:58;4.77;;;4.00;;
8538;SDS011;4307;53.868;11.680;2022-11-20T10:25:38;6.47;;;5.40;;
8538;SDS011;4307;53.868;11.680;2022-11-20T10:28:15;9.10;;;6.57;;
8538;SDS011;4307;53.868;11.680;2022-11-20T10:30:52;5.80;;;4.23;;
8538;SDS011;4307;53.868;11.680;2022-11-20T10:33:25;5.10;;;3.73;;
8538;SDS011;4307;53.868;11.680;2022-11-20T10:35:55;8.67;;;4.67;;
8538;SDS011;4307;53.868;11.680;2022-11-20T10:38:31;6.03;;;5.00;;
8538;SDS011;4307;53.868;11.680;2022-11-20T10:41:02;5.23;;;3.83;;
8538;SDS011;4307;53.868;11.680;2022-11-20T10:43:44;4.00;;;3.33;;
8538;SDS011;4307;53.868;11.680;2022-11-20T10:46:13;1.20;;;1.13;;
8538;SDS011;4307;53.868;11.680;2022-11-20T10:48:44;3.50;;;3.20;;
8538;SDS011;4307;53.868;11.680;2022-11-20T10:51:13;5.90;;;4.70;;
8538;SDS011;4307;53.868;11.680;2022-11-20T10:53:51;3.27;;;2.37;;
8538;SDS011;4307;53.868;11.680;2022-11-20T10:56:22;4.40;;;3.57;;
8538;SDS011;4307;53.868;11.680;2022-11-20T10:59:01;4.97;;;3.77;;
8538;SDS011;4307;53.868;11.680;2022-11-20T11:01:39;3.10;;;2.63;;
8538;SDS011;4307;53.868;11.680;2022-11-20T11:04:08;3.43;;;3.07;;
8538;SDS011;4307;53.868;11.680;2022-11-20T11:06:50;5.10;;;4.57;;
8538;SDS011;4307;53.868;11.680;2022-11-20T11:09:22;4.20;;;3.30;;
8538;SDS011;4307;53.868;11.680;2022-11-20T11:11:58;3.50;;;2.87;;
8538;SDS011;4307;53.868;11.680;2022-11-20T11:14:24;4.20;;;3.13;;
8538;SDS011;4307;53.868;11.680;2022-11-20T11:16:52;4.50;;;4.00;;
8538;SDS011;4307;53.868;11.680;2022-11-20T11:19:22;3.27;;;2.97;;
8538;SDS011;4307;53.868;11.680;2022-11-20T11:21:49;4.40;;;3.90;;
8538;SDS011;4307;53.868;11.680;2022-11-20T11:24:20;2.63;;;2.43;;
8538;SDS011;4307;53.868;11.680;2022-11-20T11:26:52;4.10;;;3.70;;
8538;SDS011;4307;53.868;11.680;2022-11-20T11:29:22;4.40;;;3.93;;
8538;SDS011;4307;53.868;11.680;2022-11-20T11:32:02;4.57;;;3.60;;
8538;SDS011;4307;53.868;11.680;2022-11-20T11:34:30;5.17;;;4.07;;
8538;SDS011;4307;53.868;11.680;2022-11-20T11:36:58;3.93;;;3.63;;
8538;SDS011;4307;53.868;11.680;2022-11-20T11:39:26;5.20;;;4.50;;
8538;SDS011;4307;53.868;11.680;2022-11-20T11:41:54;1.53;;;1.43;;
8538;SDS011;4307;53.868;11.680;2022-11-20T11:44:22;5.03;;;3.90;;
8538;SDS011;4307;53.868;11.680;2022-11-20T11:47:11;4.17;;;3.50;;
8538;SDS011;4307;53.868;11.680;2022-11-20T11:49:49;3.80;;;3.23;;
8538;SDS011;4307;53.868;11.680;2022-11-20T11:52:27;3.20;;;2.90;;
8538;SDS011;4307;53.868;11.680;2022-11-20T11:54:57;4.50;;;4.10;;
8538;SDS011;4307;53.868;11.680;2022-11-20T11:57:26;3.43;;;3.10;;
8538;SDS011;4307;53.868;11.680;2022-11-20T12:00:01;4.33;;;3.80;;
8538;SDS011;4307;53.868;11.680;2022-11-20T12:02:34;5.90;;;4.53;;
8538;SDS011;4307;53.868;11.680;2022-11-20T12:05:08;4.40;;;3.80;;
8538;SDS011;4307;53.868;11.680;2022-11-20T12:07:43;4.77;;;3.43;;
8538;SDS011;4307;53.868;11.680;2022-11-20T12:10:15;4.30;;;3.90;;
8538;SDS011;4307;53.868;11.680;2022-11-20T12:12:48;4.47;;;4.07;;
8538;SDS011;4307;53.868;11.680;2022-11-20T12:15:22;5.20;;;3.90;;
8538;SDS011;4307;53.868;11.680;2022-11-20T12:17:52;6.60;;;4.67;;
8538;SDS011;4307;53.868;11.680;2022-11-20T12:20:20;4.97;;;4.47;;
8538;SDS011;4307;53.868;11.680;2022-11-20T12:22:51;4.87;;;4.03;;
8538;SDS011;4307;53.868;11.680;2022-11-20T12:25:22;5.97;;;4.80;;
8538;SDS011;4307;53.868;11.680;2022-11-20T12:27:59;5.70;;;4.43;;
8538;SDS011;4307;53.868;11.680;2022-11-20T12:30:38;5.70;;;4.97;;
8538;SDS011;4307;53.868;11.680;2022-11-20T12:33:19;6.30;;;4.97;;
8538;SDS011;4307;53.868;11.680;2022-11-20T12:36:15;7.23;;;4.73;;
8538;SDS011;4307;53.868;11.680;2022-11-20T12:42:05;4.57;;;3.43;;
8538;SDS011;4307;53.868;11.680;2022-11-20T12:45:07;6.93;;;4.30;;
8538;SDS011;4307;53.868;11.680;2022-11-20T12:47:51;4.83;;;4.27;;
8538;SDS011;4307;53.868;11.680;2022-11-20T12:50:37;5.40;;;4.67;;
8538;SDS011;4307;53.868;11.680;2022-11-20T12:53:20;5.37;;;4.60;;
8538;SDS011;4307;53.868;11.680;2022-11-20T12:55:54;7.30;;;5.10;;
8538;SDS011;4307;53.868;11.680;2022-11-20T12:58:33;5.60;;;5.00;;
8538;SDS011;4307;53.868;11.680;2022-11-20T13:01:08;5.67;;;4.80;;
8538;SDS011;4307;53.868;11.680;2022-11-20T13:04:01;6.83;;;4.80;;
8538;SDS011;4307;53.868;11.680;2022-11-20T13:06:35;7.43;;;4.30;;
8538;SDS011;4307;53.868;11.680;2022-11-20T13:09:04;4.57;;;4.17;;
8538;SDS011;4307;53.868;11.680;2022-11-20T13:11:39;8.93;;;5.17;;
8538;SDS011;4307;53.868;11.680;2022-11-20T13:14:16;5.80;;;4.57;;
8538;SDS011;4307;53.868;11.680;2022-11-20T13:16:53;5.60;;;4.93;;
8538;SDS011;4307;53.868;11.680;2022-11-20T13:19:23;4.60;;;4.10;;
8538;SDS011;4307;53.868;11.680;2022-11-20T13:21:51;6.33;;;4.40;;
8538;SDS011;4307;53.868;11.680;2022-11-20T13:24:23;4.50;;;4.10;;
8538;SDS011;4307;53.868;11.680;2022-11-20T13:27:02;4.60;;;4.20;;
8538;SDS011;4307;53.868;11.680;2022-11-20T13:29:31;7.83;;;4.07;;
8538;SDS011;4307;53.868;11.680;2022-11-20T13:32:04;4.10;;;3.70;;
8538;SDS011;4307;53.868;11.680;2022-11-20T13:34:33;7.57;;;4.07;;
8538;SDS011;4307;53.868;11.680;2022-11-20T13:37:00;4.47;;;4.03;;
8538;SDS011;4307;53.868;11.680;2022-11-20T13:39:30;5.50;;;3.97;;
8538;SDS011;4307;53.868;11.680;2022-11-20T13:41:58;4.03;;;3.63;;
8538;SDS011;4307;53.868;11.680;2022-11-20T13:44:27;4.80;;;3.80;;
8538;SDS011;4307;53.868;11.680;2022-11-20T13:46:59;3.70;;;3.40;;
8538;SDS011;4307;53.868;11.680;2022-11-20T13:49:26;3.80;;;3.40;;
8538;SDS011;4307;53.868;11.680;2022-11-20T13:51:59;3.20;;;2.93;;
8538;SDS011;4307;53.868;11.680;2022-11-20T13:54:47;3.97;;;3.57;;
8538;SDS011;4307;53.868;11.680;2022-11-20T13:57:28;3.77;;;3.47;;
8538;SDS011;4307;53.868;11.680;2022-11-20T14:00:18;3.93;;;3.43;;
8538;SDS011;4307;53.868;11.680;2022-11-20T14:02:48;4.43;;;3.37;;
8538;SDS011;4307;53.868;11.680;2022-11-20T14:05:27;3.23;;;3.03;;
8538;SDS011;4307;53.868;11.680;2022-11-20T14:07:57;3.40;;;2.97;;
8538;SDS011;4307;53.868;11.680;2022-11-20T14:10:27;4.27;;;3.37;;
8538;SDS011;4307;53.868;11.680;2022-11-20T14:12:55;3.80;;;3.37;;
8538;SDS011;4307;53.868;11.680;2022-11-20T14:15:25;3.97;;;2.80;;
8538;SDS011;4307;53.868;11.680;2022-11-20T14:17:53;3.53;;;3.23;;
8538;SDS011;4307;53.868;11.680;2022-11-20T14:20:20;2.27;;;2.17;;
8538;SDS011;4307;53.868;11.680;2022-11-20T14:22:50;2.80;;;2.60;;
8538;SDS011;4307;53.868;11.680;2022-11-20T14:25:19;2.73;;;2.53;;
8538;SDS011;4307;53.868;11.680;2022-11-20T14:27:50;2.17;;;2.00;;
8538;SDS011;4307;53.868;11.680;2022-11-20T14:30:19;2.37;;;2.17;;
8538;SDS011;4307;53.868;11.680;2022-11-20T14:32:47;2.50;;;2.30;;
8538;SDS011;4307;53.868;11.680;2022-11-20T14:35:17;2.70;;;2.50;;
8538;SDS011;4307;53.868;11.680;2022-11-20T14:37:47;1.97;;;1.87;;
8538;SDS011;4307;53.868;11.680;2022-11-20T14:40:22;2.40;;;2.20;;
8538;SDS011;4307;53.868;11.680;2022-11-20T14:42:52;2.83;;;2.63;;
8538;SDS011;4307;53.868;11.680;2022-11-20T14:45:19;3.03;;;2.83;;
8538;SDS011;4307;53.868;11.680;2022-11-20T14:47:47;3.63;;;3.10;;
8538;SDS011;4307;53.868;11.680;2022-11-20T14:50:16;3.33;;;3.03;;
8538;SDS011;4307;53.868;11.680;2022-11-20T14:52:55;4.87;;;2.70;;
8538;SDS011;4307;53.868;11.680;2022-11-20T14:55:26;3.20;;;2.90;;
8538;SDS011;4307;53.868;11.680;2022-11-20T14:57:56;3.70;;;2.90;;
8538;SDS011;4307;53.868;11.680;2022-11-20T15:00:24;4.63;;;4.17;;
8538;SDS011;4307;53.868;11.680;2022-11-20T15:02:51;5.00;;;4.27;;
8538;SDS011;4307;53.868;11.680;2022-11-20T15:05:19;3.60;;;3.30;;
8538;SDS011;4307;53.868;11.680;2022-11-20T15:07:48;4.83;;;3.43;;
8538;SDS011;4307;53.868;11.680;2022-11-20T15:10:20;8.67;;;4.63;;
8538;SDS011;4307;53.868;11.680;2022-11-20T15:12:48;3.90;;;3.60;;
8538;SDS011;4307;53.868;11.680;2022-11-20T15:15:19;8.60;;;6.20;;
8538;SDS011;4307;53.868;11.680;2022-11-20T15:17:49;5.53;;;4.47;;